Main page
METAR-TAF:

METAR-TAF

Airports :

Euro, Netherlands

Oil platform

latitude: 51-59-52N, longitude: 3-16-30E, elevation: 18 m

Current weather observation

The report was made 26 minutes ago, at 04:25 UTC
Wind 31 kt from the West with gusts up to 35 kt
Temperature 14°C
Humidity 67%
Pressure 1005 hPa
Visibility 10 km or more

METAR: EHSA 220425Z AUTO 26031G35KT 9999 ///////// 14/08 Q1005 W16/H24

Time: 06:51 (04:51 UTC)


TAF: missing

Weather observations and forecasts of more than 4000 airports (METAR and TAF reports).

The available stations are represented by yellow and red dots on the map.

Hover mouse over dot to see the name of the station.

Then click to see weather observations and forecasts.

To change the map : click on the green buttons with a black cross to zoom in, on the green button with a dash to zoom out, or on the green arrows for adjacent maps.


METAR-TAF: